sensor_id;sensor_type;location;lat;lon;timestamp;P1;durP1;ratioP1;P2;durP2;ratioP2
26989;SDS011;14537;47.788;11.858;2022-11-20T00:01:21;1.55;;;0.75;;
26989;SDS011;14537;47.788;11.858;2022-11-20T00:03:48;3.05;;;1.10;;
26989;SDS011;14537;47.788;11.858;2022-11-20T00:06:16;1.35;;;0.82;;
26989;SDS011;14537;47.788;11.858;2022-11-20T00:08:43;2.75;;;0.85;;
26989;SDS011;14537;47.788;11.858;2022-11-20T00:11:10;0.95;;;0.70;;
26989;SDS011;14537;47.788;11.858;2022-11-20T00:13:38;3.60;;;1.00;;
26989;SDS011;14537;47.788;11.858;2022-11-20T00:16:04;2.60;;;0.77;;
26989;SDS011;14537;47.788;11.858;2022-11-20T00:18:32;2.22;;;0.60;;
26989;SDS011;14537;47.788;11.858;2022-11-20T00:21:06;2.28;;;0.70;;
26989;SDS011;14537;47.788;11.858;2022-11-20T00:23:35;3.33;;;0.90;;
26989;SDS011;14537;47.788;11.858;2022-11-20T00:26:04;1.45;;;0.90;;
26989;SDS011;14537;47.788;11.858;2022-11-20T00:28:31;1.50;;;0.90;;
26989;SDS011;14537;47.788;11.858;2022-11-20T00:31:00;3.53;;;0.70;;
26989;SDS011;14537;47.788;11.858;2022-11-20T00:33:31;1.83;;;0.90;;
26989;SDS011;14537;47.788;11.858;2022-11-20T00:36:00;2.33;;;1.00;;
26989;SDS011;14537;47.788;11.858;2022-11-20T00:38:27;3.10;;;0.75;;
26989;SDS011;14537;47.788;11.858;2022-11-20T00:40:56;0.90;;;0.70;;
26989;SDS011;14537;47.788;11.858;2022-11-20T00:45:48;1.92;;;0.60;;
26989;SDS011;14537;47.788;11.858;2022-11-20T00:48:13;1.25;;;0.75;;
26989;SDS011;14537;47.788;11.858;2022-11-20T00:50:40;1.33;;;0.70;;
26989;SDS011;14537;47.788;11.858;2022-11-20T00:53:06;1.20;;;0.63;;
26989;SDS011;14537;47.788;11.858;2022-11-20T00:55:32;2.03;;;0.85;;
26989;SDS011;14537;47.788;11.858;2022-11-20T00:57:58;1.52;;;0.85;;
26989;SDS011;14537;47.788;11.858;2022-11-20T01:00:23;1.00;;;0.70;;
26989;SDS011;14537;47.788;11.858;2022-11-20T01:02:49;1.20;;;0.70;;
26989;SDS011;14537;47.788;11.858;2022-11-20T01:05:15;1.67;;;0.80;;
26989;SDS011;14537;47.788;11.858;2022-11-20T01:07:40;4.93;;;0.82;;
26989;SDS011;14537;47.788;11.858;2022-11-20T01:10:06;1.33;;;0.85;;
26989;SDS011;14537;47.788;11.858;2022-11-20T01:12:32;3.08;;;0.80;;
26989;SDS011;14537;47.788;11.858;2022-11-20T01:14:58;1.08;;;0.77;;
26989;SDS011;14537;47.788;11.858;2022-11-20T01:17:23;3.08;;;0.80;;
26989;SDS011;14537;47.788;11.858;2022-11-20T01:19:49;1.27;;;0.60;;
26989;SDS011;14537;47.788;11.858;2022-11-20T01:22:15;1.55;;;0.90;;
26989;SDS011;14537;47.788;11.858;2022-11-20T01:24:41;0.93;;;0.80;;
26989;SDS011;14537;47.788;11.858;2022-11-20T01:27:07;1.17;;;0.90;;
26989;SDS011;14537;47.788;11.858;2022-11-20T01:29:32;2.35;;;1.10;;
26989;SDS011;14537;47.788;11.858;2022-11-20T01:31:58;1.05;;;0.88;;
26989;SDS011;14537;47.788;11.858;2022-11-20T01:34:23;1.08;;;0.95;;
26989;SDS011;14537;47.788;11.858;2022-11-20T01:36:50;1.13;;;0.65;;
26989;SDS011;14537;47.788;11.858;2022-11-20T01:39:20;1.73;;;1.10;;
26989;SDS011;14537;47.788;11.858;2022-11-20T01:41:48;4.47;;;1.13;;
26989;SDS011;14537;47.788;11.858;2022-11-20T01:44:45;1.63;;;0.82;;
26989;SDS011;14537;47.788;11.858;2022-11-20T01:47:13;1.52;;;0.98;;
26989;SDS011;14537;47.788;11.858;2022-11-20T01:52:13;1.35;;;0.95;;
26989;SDS011;14537;47.788;11.858;2022-11-20T01:55:05;1.17;;;0.80;;
26989;SDS011;14537;47.788;11.858;2022-11-20T01:57:32;0.73;;;0.70;;
26989;SDS011;14537;47.788;11.858;2022-11-20T02:00:04;2.75;;;0.88;;
26989;SDS011;14537;47.788;11.858;2022-11-20T02:02:36;1.30;;;0.95;;
26989;SDS011;14537;47.788;11.858;2022-11-20T02:05:09;1.20;;;0.90;;
26989;SDS011;14537;47.788;11.858;2022-11-20T02:07:57;2.17;;;1.13;;
26989;SDS011;14537;47.788;11.858;2022-11-20T02:10:26;1.35;;;0.70;;
26989;SDS011;14537;47.788;11.858;2022-11-20T02:12:53;1.45;;;1.02;;
26989;SDS011;14537;47.788;11.858;2022-11-20T02:15:37;1.27;;;0.80;;
26989;SDS011;14537;47.788;11.858;2022-11-20T02:18:03;1.77;;;1.27;;
26989;SDS011;14537;47.788;11.858;2022-11-20T02:20:30;1.23;;;1.08;;
26989;SDS011;14537;47.788;11.858;2022-11-20T02:22:57;0.63;;;0.63;;
26989;SDS011;14537;47.788;11.858;2022-11-20T02:25:28;2.78;;;1.17;;
26989;SDS011;14537;47.788;11.858;2022-11-20T02:27:57;4.75;;;1.45;;
26989;SDS011;14537;47.788;11.858;2022-11-20T02:30:22;1.20;;;1.05;;
26989;SDS011;14537;47.788;11.858;2022-11-20T02:32:49;1.27;;;0.93;;
26989;SDS011;14537;47.788;11.858;2022-11-20T02:37:43;3.40;;;1.27;;
26989;SDS011;14537;47.788;11.858;2022-11-20T02:40:09;1.60;;;1.15;;
26989;SDS011;14537;47.788;11.858;2022-11-20T02:42:36;2.08;;;1.08;;
26989;SDS011;14537;47.788;11.858;2022-11-20T02:45:03;2.80;;;1.10;;
26989;SDS011;14537;47.788;11.858;2022-11-20T02:47:30;1.27;;;1.00;;
26989;SDS011;14537;47.788;11.858;2022-11-20T02:49:55;2.08;;;1.33;;
26989;SDS011;14537;47.788;11.858;2022-11-20T02:52:21;2.75;;;1.40;;
26989;SDS011;14537;47.788;11.858;2022-11-20T02:54:47;1.65;;;1.20;;
26989;SDS011;14537;47.788;11.858;2022-11-20T02:57:12;2.10;;;1.30;;
26989;SDS011;14537;47.788;11.858;2022-11-20T02:59:38;8.27;;;1.30;;
26989;SDS011;14537;47.788;11.858;2022-11-20T03:02:04;4.90;;;1.30;;
26989;SDS011;14537;47.788;11.858;2022-11-20T03:04:30;2.25;;;1.55;;
26989;SDS011;14537;47.788;11.858;2022-11-20T03:06:56;2.75;;;1.70;;
26989;SDS011;14537;47.788;11.858;2022-11-20T03:09:21;3.45;;;1.73;;
26989;SDS011;14537;47.788;11.858;2022-11-20T03:11:47;2.33;;;1.60;;
26989;SDS011;14537;47.788;11.858;2022-11-20T03:14:12;2.40;;;1.75;;
26989;SDS011;14537;47.788;11.858;2022-11-20T03:16:39;2.05;;;1.27;;
26989;SDS011;14537;47.788;11.858;2022-11-20T03:19:05;3.17;;;1.60;;
26989;SDS011;14537;47.788;11.858;2022-11-20T03:21:32;1.70;;;1.40;;
26989;SDS011;14537;47.788;11.858;2022-11-20T03:23:58;2.97;;;1.45;;
26989;SDS011;14537;47.788;11.858;2022-11-20T03:26:25;3.95;;;1.70;;
26989;SDS011;14537;47.788;11.858;2022-11-20T03:28:59;1.80;;;1.50;;
26989;SDS011;14537;47.788;11.858;2022-11-20T03:31:28;3.83;;;1.70;;
26989;SDS011;14537;47.788;11.858;2022-11-20T03:33:59;3.05;;;1.60;;
26989;SDS011;14537;47.788;11.858;2022-11-20T03:36:26;4.05;;;1.70;;
26989;SDS011;14537;47.788;11.858;2022-11-20T03:38:53;3.08;;;2.00;;
26989;SDS011;14537;47.788;11.858;2022-11-20T03:41:26;3.47;;;2.15;;
26989;SDS011;14537;47.788;11.858;2022-11-20T03:43:58;4.55;;;1.60;;
26989;SDS011;14537;47.788;11.858;2022-11-20T03:46:27;3.47;;;1.80;;
26989;SDS011;14537;47.788;11.858;2022-11-20T03:48:54;3.75;;;2.30;;
26989;SDS011;14537;47.788;11.858;2022-11-20T03:53:47;3.45;;;2.00;;
26989;SDS011;14537;47.788;11.858;2022-11-20T03:56:15;5.80;;;2.28;;
26989;SDS011;14537;47.788;11.858;2022-11-20T03:58:41;3.80;;;2.08;;
26989;SDS011;14537;47.788;11.858;2022-11-20T04:01:11;2.47;;;2.00;;
26989;SDS011;14537;47.788;11.858;2022-11-20T04:03:57;4.35;;;2.10;;
26989;SDS011;14537;47.788;11.858;2022-11-20T04:06:24;4.50;;;1.73;;
26989;SDS011;14537;47.788;11.858;2022-11-20T04:08:57;5.15;;;1.95;;
26989;SDS011;14537;47.788;11.858;2022-11-20T04:11:24;4.32;;;2.05;;
26989;SDS011;14537;47.788;11.858;2022-11-20T04:13:55;3.67;;;1.92;;
26989;SDS011;14537;47.788;11.858;2022-11-20T04:16:23;3.22;;;2.10;;
26989;SDS011;14537;47.788;11.858;2022-11-20T04:18:53;2.92;;;1.95;;
26989;SDS011;14537;47.788;11.858;2022-11-20T04:21:20;3.40;;;2.08;;
26989;SDS011;14537;47.788;11.858;2022-11-20T04:23:46;3.33;;;2.10;;
26989;SDS011;14537;47.788;11.858;2022-11-20T04:26:12;2.83;;;1.83;;
26989;SDS011;14537;47.788;11.858;2022-11-20T04:28:38;4.72;;;2.60;;
26989;SDS011;14537;47.788;11.858;2022-11-20T04:33:35;2.97;;;1.95;;
26989;SDS011;14537;47.788;11.858;2022-11-20T04:36:07;6.03;;;2.25;;
26989;SDS011;14537;47.788;11.858;2022-11-20T04:38:36;3.58;;;2.22;;
26989;SDS011;14537;47.788;11.858;2022-11-20T04:41:02;4.28;;;2.40;;
26989;SDS011;14537;47.788;11.858;2022-11-20T04:43:30;6.05;;;2.28;;
26989;SDS011;14537;47.788;11.858;2022-11-20T04:45:57;3.70;;;2.03;;
26989;SDS011;14537;47.788;11.858;2022-11-20T04:48:23;3.30;;;2.10;;
26989;SDS011;14537;47.788;11.858;2022-11-20T04:50:50;3.72;;;2.40;;
26989;SDS011;14537;47.788;11.858;2022-11-20T04:53:16;3.10;;;1.92;;
26989;SDS011;14537;47.788;11.858;2022-11-20T04:55:42;3.60;;;2.33;;
26989;SDS011;14537;47.788;11.858;2022-11-20T04:58:08;4.40;;;2.15;;
26989;SDS011;14537;47.788;11.858;2022-11-20T05:00:34;3.75;;;2.30;;
26989;SDS011;14537;47.788;11.858;2022-11-20T05:02:59;3.13;;;1.88;;
26989;SDS011;14537;47.788;11.858;2022-11-20T05:05:25;6.10;;;2.67;;
26989;SDS011;14537;47.788;11.858;2022-11-20T05:07:51;3.30;;;2.33;;
26989;SDS011;14537;47.788;11.858;2022-11-20T05:10:17;4.93;;;2.28;;
26989;SDS011;14537;47.788;11.858;2022-11-20T05:12:42;5.55;;;2.00;;
26989;SDS011;14537;47.788;11.858;2022-11-20T05:15:08;8.63;;;2.03;;
26989;SDS011;14537;47.788;11.858;2022-11-20T05:17:34;3.22;;;1.92;;
26989;SDS011;14537;47.788;11.858;2022-11-20T05:19:59;3.75;;;2.30;;
26989;SDS011;14537;47.788;11.858;2022-11-20T05:22:25;3.63;;;2.33;;
26989;SDS011;14537;47.788;11.858;2022-11-20T05:24:51;3.83;;;2.00;;
26989;SDS011;14537;47.788;11.858;2022-11-20T05:27:16;4.55;;;2.20;;
26989;SDS011;14537;47.788;11.858;2022-11-20T05:29:42;6.30;;;1.95;;
26989;SDS011;14537;47.788;11.858;2022-11-20T05:32:08;3.13;;;2.03;;
26989;SDS011;14537;47.788;11.858;2022-11-20T05:34:34;4.28;;;2.42;;
26989;SDS011;14537;47.788;11.858;2022-11-20T05:37:01;4.07;;;2.50;;
26989;SDS011;14537;47.788;11.858;2022-11-20T05:39:27;4.18;;;1.77;;
26989;SDS011;14537;47.788;11.858;2022-11-20T05:41:53;3.67;;;1.95;;
26989;SDS011;14537;47.788;11.858;2022-11-20T05:44:37;5.47;;;1.85;;
26989;SDS011;14537;47.788;11.858;2022-11-20T05:47:04;3.05;;;2.00;;
26989;SDS011;14537;47.788;11.858;2022-11-20T05:49:29;3.42;;;2.20;;
26989;SDS011;14537;47.788;11.858;2022-11-20T05:51:55;4.03;;;1.95;;
26989;SDS011;14537;47.788;11.858;2022-11-20T05:54:21;5.60;;;2.17;;
26989;SDS011;14537;47.788;11.858;2022-11-20T05:56:46;2.30;;;1.90;;
26989;SDS011;14537;47.788;11.858;2022-11-20T05:59:12;2.63;;;1.65;;
26989;SDS011;14537;47.788;11.858;2022-11-20T06:01:38;4.18;;;1.77;;
26989;SDS011;14537;47.788;11.858;2022-11-20T06:04:03;4.18;;;1.88;;
26989;SDS011;14537;47.788;11.858;2022-11-20T06:06:29;3.00;;;1.80;;
26989;SDS011;14537;47.788;11.858;2022-11-20T06:08:55;4.28;;;2.22;;
26989;SDS011;14537;47.788;11.858;2022-11-20T06:11:20;3.78;;;2.03;;
26989;SDS011;14537;47.788;11.858;2022-11-20T06:13:46;6.53;;;2.40;;
26989;SDS011;14537;47.788;11.858;2022-11-20T06:16:13;8.90;;;2.30;;
26989;SDS011;14537;47.788;11.858;2022-11-20T06:18:40;5.50;;;2.10;;
26989;SDS011;14537;47.788;11.858;2022-11-20T06:21:09;3.35;;;2.03;;
26989;SDS011;14537;47.788;11.858;2022-11-20T06:23:37;3.05;;;2.10;;
26989;SDS011;14537;47.788;11.858;2022-11-20T06:26:04;6.43;;;2.08;;
26989;SDS011;14537;47.788;11.858;2022-11-20T06:28:31;3.28;;;1.98;;
26989;SDS011;14537;47.788;11.858;2022-11-20T06:30:57;3.72;;;2.17;;
26989;SDS011;14537;47.788;11.858;2022-11-20T06:33:23;2.42;;;1.85;;
26989;SDS011;14537;47.788;11.858;2022-11-20T06:35:49;2.58;;;1.58;;
26989;SDS011;14537;47.788;11.858;2022-11-20T06:38:15;2.97;;;1.85;;
26989;SDS011;14537;47.788;11.858;2022-11-20T06:40:41;2.75;;;1.52;;
26989;SDS011;14537;47.788;11.858;2022-11-20T06:43:07;6.75;;;2.45;;
26989;SDS011;14537;47.788;11.858;2022-11-20T06:45:34;4.97;;;2.00;;
26989;SDS011;14537;47.788;11.858;2022-11-20T06:48:00;3.53;;;1.52;;
26989;SDS011;14537;47.788;11.858;2022-11-20T06:50:26;3.78;;;1.60;;
26989;SDS011;14537;47.788;11.858;2022-11-20T06:52:52;2.33;;;1.52;;
26989;SDS011;14537;47.788;11.858;2022-11-20T06:55:18;2.47;;;1.55;;
26989;SDS011;14537;47.788;11.858;2022-11-20T06:57:43;8.20;;;2.75;;
26989;SDS011;14537;47.788;11.858;2022-11-20T07:00:09;5.40;;;1.90;;
26989;SDS011;14537;47.788;11.858;2022-11-20T07:02:36;2.15;;;1.30;;
26989;SDS011;14537;47.788;11.858;2022-11-20T07:05:01;3.50;;;2.20;;
26989;SDS011;14537;47.788;11.858;2022-11-20T07:07:27;6.93;;;2.60;;
26989;SDS011;14537;47.788;11.858;2022-11-20T07:09:53;5.13;;;2.05;;
26989;SDS011;14537;47.788;11.858;2022-11-20T07:12:18;9.98;;;3.08;;
26989;SDS011;14537;47.788;11.858;2022-11-20T07:14:44;2.65;;;1.73;;
26989;SDS011;14537;47.788;11.858;2022-11-20T07:17:09;1.98;;;1.50;;
26989;SDS011;14537;47.788;11.858;2022-11-20T07:19:36;3.78;;;1.77;;
26989;SDS011;14537;47.788;11.858;2022-11-20T07:22:01;4.05;;;1.90;;
26989;SDS011;14537;47.788;11.858;2022-11-20T07:24:27;4.05;;;1.98;;
26989;SDS011;14537;47.788;11.858;2022-11-20T07:26:53;4.72;;;1.90;;
26989;SDS011;14537;47.788;11.858;2022-11-20T07:29:18;3.33;;;1.63;;
26989;SDS011;14537;47.788;11.858;2022-11-20T07:31:44;3.70;;;1.45;;
26989;SDS011;14537;47.788;11.858;2022-11-20T07:34:09;2.35;;;1.63;;
26989;SDS011;14537;47.788;11.858;2022-11-20T07:36:35;3.75;;;1.65;;
26989;SDS011;14537;47.788;11.858;2022-11-20T07:39:01;3.05;;;1.58;;
26989;SDS011;14537;47.788;11.858;2022-11-20T07:41:26;3.03;;;1.38;;
26989;SDS011;14537;47.788;11.858;2022-11-20T07:43:52;2.55;;;1.05;;
26989;SDS011;14537;47.788;11.858;2022-11-20T07:46:18;3.33;;;1.50;;
26989;SDS011;14537;47.788;11.858;2022-11-20T07:48:44;2.58;;;1.30;;
26989;SDS011;14537;47.788;11.858;2022-11-20T07:51:09;4.00;;;2.03;;
26989;SDS011;14537;47.788;11.858;2022-11-20T07:53:35;2.38;;;1.55;;
26989;SDS011;14537;47.788;11.858;2022-11-20T07:56:01;2.67;;;1.13;;
26989;SDS011;14537;47.788;11.858;2022-11-20T07:58:31;2.03;;;1.17;;
26989;SDS011;14537;47.788;11.858;2022-11-20T08:00:58;1.38;;;0.80;;
26989;SDS011;14537;47.788;11.858;2022-11-20T08:03:30;1.25;;;0.93;;
26989;SDS011;14537;47.788;11.858;2022-11-20T08:05:58;3.83;;;0.93;;
26989;SDS011;14537;47.788;11.858;2022-11-20T08:08:25;0.50;;;0.50;;
26989;SDS011;14537;47.788;11.858;2022-11-20T08:10:51;5.05;;;0.88;;
26989;SDS011;14537;47.788;11.858;2022-11-20T08:13:17;0.40;;;0.40;;
26989;SDS011;14537;47.788;11.858;2022-11-20T08:16:01;1.20;;;0.70;;
26989;SDS011;14537;47.788;11.858;2022-11-20T08:18:26;0.73;;;0.63;;
26989;SDS011;14537;47.788;11.858;2022-11-20T08:20:52;0.75;;;0.75;;
26989;SDS011;14537;47.788;11.858;2022-11-20T08:23:18;0.82;;;0.70;;
26989;SDS011;14537;47.788;11.858;2022-11-20T08:25:43;1.02;;;0.77;;
26989;SDS011;14537;47.788;11.858;2022-11-20T08:28:14;1.80;;;0.80;;
26989;SDS011;14537;47.788;11.858;2022-11-20T08:30:40;1.33;;;0.70;;
26989;SDS011;14537;47.788;11.858;2022-11-20T08:33:25;0.80;;;0.68;;
26989;SDS011;14537;47.788;11.858;2022-11-20T08:35:52;0.68;;;0.60;;
26989;SDS011;14537;47.788;11.858;2022-11-20T08:38:17;0.40;;;0.38;;
26989;SDS011;14537;47.788;11.858;2022-11-20T08:40:43;1.90;;;0.65;;
26989;SDS011;14537;47.788;11.858;2022-11-20T08:43:31;0.60;;;0.50;;
26989;SDS011;14537;47.788;11.858;2022-11-20T08:45:57;0.60;;;0.50;;
26989;SDS011;14537;47.788;11.858;2022-11-20T08:48:23;0.73;;;0.47;;
26989;SDS011;14537;47.788;11.858;2022-11-20T08:50:48;0.43;;;0.40;;
26989;SDS011;14537;47.788;11.858;2022-11-20T08:53:14;2.13;;;0.68;;
26989;SDS011;14537;47.788;11.858;2022-11-20T08:55:40;3.05;;;0.95;;
26989;SDS011;14537;47.788;11.858;2022-11-20T08:58:06;1.50;;;0.68;;
26989;SDS011;14537;47.788;11.858;2022-11-20T09:00:32;0.17;;;0.13;;
26989;SDS011;14537;47.788;11.858;2022-11-20T09:02:58;0.32;;;0.32;;
26989;SDS011;14537;47.788;11.858;2022-11-20T09:05:25;0.88;;;0.40;;
26989;SDS011;14537;47.788;11.858;2022-11-20T09:07:52;2.13;;;0.45;;
26989;SDS011;14537;47.788;11.858;2022-11-20T09:10:21;0.60;;;0.60;;
26989;SDS011;14537;47.788;11.858;2022-11-20T09:12:48;0.63;;;0.40;;
26989;SDS011;14537;47.788;11.858;2022-11-20T09:15:14;0.55;;;0.30;;
26989;SDS011;14537;47.788;11.858;2022-11-20T09:17:40;0.82;;;0.55;;
26989;SDS011;14537;47.788;11.858;2022-11-20T09:20:06;0.82;;;0.52;;
26989;SDS011;14537;47.788;11.858;2022-11-20T09:22:32;0.60;;;0.40;;
26989;SDS011;14537;47.788;11.858;2022-11-20T09:24:57;0.43;;;0.40;;
26989;SDS011;14537;47.788;11.858;2022-11-20T09:27:23;0.55;;;0.40;;
26989;SDS011;14537;47.788;11.858;2022-11-20T09:29:49;1.17;;;0.45;;
26989;SDS011;14537;47.788;11.858;2022-11-20T09:32:14;0.57;;;0.57;;
26989;SDS011;14537;47.788;11.858;2022-11-20T09:34:40;0.65;;;0.40;;
26989;SDS011;14537;47.788;11.858;2022-11-20T09:37:05;0.95;;;0.60;;
26989;SDS011;14537;47.788;11.858;2022-11-20T09:39:31;1.02;;;0.52;;
26989;SDS011;14537;47.788;11.858;2022-11-20T09:42:04;0.13;;;0.13;;
26989;SDS011;14537;47.788;11.858;2022-11-20T09:45:00;0.30;;;0.30;;
26989;SDS011;14537;47.788;11.858;2022-11-20T09:47:41;2.80;;;0.35;;
26989;SDS011;14537;47.788;11.858;2022-11-20T09:50:36;2.10;;;0.50;;
26989;SDS011;14537;47.788;11.858;2022-11-20T09:55:43;0.63;;;0.57;;
26989;SDS011;14537;47.788;11.858;2022-11-20T09:58:14;0.68;;;0.55;;
26989;SDS011;14537;47.788;11.858;2022-11-20T10:00:49;1.10;;;0.70;;
26989;SDS011;14537;47.788;11.858;2022-11-20T10:03:19;0.75;;;0.40;;
26989;SDS011;14537;47.788;11.858;2022-11-20T10:05:56;0.77;;;0.60;;
26989;SDS011;14537;47.788;11.858;2022-11-20T10:08:28;0.75;;;0.40;;
26989;SDS011;14537;47.788;11.858;2022-11-20T10:11:10;1.55;;;0.77;;
26989;SDS011;14537;47.788;11.858;2022-11-20T10:19:43;0.45;;;0.30;;
26989;SDS011;14537;47.788;11.858;2022-11-20T10:25:13;0.77;;;0.60;;
26989;SDS011;14537;47.788;11.858;2022-11-20T10:31:09;0.68;;;0.35;;
26989;SDS011;14537;47.788;11.858;2022-11-20T10:33:40;1.02;;;0.20;;
26989;SDS011;14537;47.788;11.858;2022-11-20T10:36:28;0.20;;;0.20;;
26989;SDS011;14537;47.788;11.858;2022-11-20T10:39:03;2.38;;;0.45;;
26989;SDS011;14537;47.788;11.858;2022-11-20T10:41:40;0.25;;;0.25;;
26989;SDS011;14537;47.788;11.858;2022-11-20T10:47:04;0.22;;;0.20;;
26989;SDS011;14537;47.788;11.858;2022-11-20T10:49:36;0.30;;;0.30;;
26989;SDS011;14537;47.788;11.858;2022-11-20T11:00:13;0.30;;;0.30;;
26989;SDS011;14537;47.788;11.858;2022-11-20T11:05:41;0.90;;;0.50;;
26989;SDS011;14537;47.788;11.858;2022-11-20T11:08:14;1.75;;;0.60;;
26989;SDS011;14537;47.788;11.858;2022-11-20T11:10:50;1.90;;;0.98;;
26989;SDS011;14537;47.788;11.858;2022-11-20T11:13:23;1.83;;;0.65;;
26989;SDS011;14537;47.788;11.858;2022-11-20T11:15:50;1.33;;;0.60;;
26989;SDS011;14537;47.788;11.858;2022-11-20T11:18:29;3.08;;;1.08;;
26989;SDS011;14537;47.788;11.858;2022-11-20T11:20:57;2.58;;;1.20;;
26989;SDS011;14537;47.788;11.858;2022-11-20T11:25:58;0.70;;;0.40;;
26989;SDS011;14537;47.788;11.858;2022-11-20T11:28:25;1.00;;;0.50;;
26989;SDS011;14537;47.788;11.858;2022-11-20T11:30:53;3.03;;;1.20;;
26989;SDS011;14537;47.788;11.858;2022-11-20T11:33:20;2.65;;;1.30;;
26989;SDS011;14537;47.788;11.858;2022-11-20T11:35:49;3.08;;;0.90;;
26989;SDS011;14537;47.788;11.858;2022-11-20T11:41:07;0.65;;;0.50;;
26989;SDS011;14537;47.788;11.858;2022-11-20T11:43:37;1.42;;;0.55;;
26989;SDS011;14537;47.788;11.858;2022-11-20T11:46:29;4.55;;;0.93;;
26989;SDS011;14537;47.788;11.858;2022-11-20T11:49:01;2.50;;;0.80;;
26989;SDS011;14537;47.788;11.858;2022-11-20T11:54:25;3.80;;;1.58;;
26989;SDS011;14537;47.788;11.858;2022-11-20T11:56:58;1.70;;;1.00;;
26989;SDS011;14537;47.788;11.858;2022-11-20T11:59:30;0.33;;;0.17;;
26989;SDS011;14537;47.788;11.858;2022-11-20T12:02:01;1.80;;;0.43;;
26989;SDS011;14537;47.788;11.858;2022-11-20T12:04:46;0.40;;;0.40;;
26989;SDS011;14537;47.788;11.858;2022-11-20T12:07:22;0.70;;;0.52;;
26989;SDS011;14537;47.788;11.858;2022-11-20T12:09:52;0.50;;;0.50;;
26989;SDS011;14537;47.788;11.858;2022-11-20T12:12:24;0.75;;;0.30;;
26989;SDS011;14537;47.788;11.858;2022-11-20T12:14:54;1.00;;;0.52;;
26989;SDS011;14537;47.788;11.858;2022-11-20T12:17:22;0.73;;;0.45;;
26989;SDS011;14537;47.788;11.858;2022-11-20T12:19:48;0.52;;;0.40;;
26989;SDS011;14537;47.788;11.858;2022-11-20T12:33:04;0.45;;;0.43;;
26989;SDS011;14537;47.788;11.858;2022-11-20T12:38:00;3.88;;;0.60;;
26989;SDS011;14537;47.788;11.858;2022-11-20T12:44:28;1.08;;;0.32;;
26989;SDS011;14537;47.788;11.858;2022-11-20T13:07:20;2.55;;;0.60;;
26989;SDS011;14537;47.788;11.858;2022-11-20T13:09:49;0.45;;;0.40;;
26989;SDS011;14537;47.788;11.858;2022-11-20T13:20:18;1.67;;;1.02;;
26989;SDS011;14537;47.788;11.858;2022-11-20T13:22:48;0.75;;;0.50;;
26989;SDS011;14537;47.788;11.858;2022-11-20T13:30:36;0.60;;;0.60;;
26989;SDS011;14537;47.788;11.858;2022-11-20T13:33:27;7.05;;;2.92;;
26989;SDS011;14537;47.788;11.858;2022-11-20T13:35:59;2.30;;;1.13;;
26989;SDS011;14537;47.788;11.858;2022-11-20T13:38:28;10.68;;;3.78;;
26989;SDS011;14537;47.788;11.858;2022-11-20T13:41:06;11.20;;;4.45;;
26989;SDS011;14537;47.788;11.858;2022-11-20T13:43:52;1.10;;;0.82;;
26989;SDS011;14537;47.788;11.858;2022-11-20T13:46:19;1.13;;;0.77;;
26989;SDS011;14537;47.788;11.858;2022-11-20T13:48:49;0.45;;;0.32;;
26989;SDS011;14537;47.788;11.858;2022-11-20T13:51:26;0.80;;;0.60;;
26989;SDS011;14537;47.788;11.858;2022-11-20T14:02:11;3.28;;;0.90;;
26989;SDS011;14537;47.788;11.858;2022-11-20T14:04:45;1.20;;;0.70;;
26989;SDS011;14537;47.788;11.858;2022-11-20T14:07:14;2.78;;;1.00;;
26989;SDS011;14537;47.788;11.858;2022-11-20T14:09:48;0.38;;;0.38;;
26989;SDS011;14537;47.788;11.858;2022-11-20T14:12:20;3.88;;;1.58;;
26989;SDS011;14537;47.788;11.858;2022-11-20T14:14:53;14.85;;;4.78;;
26989;SDS011;14537;47.788;11.858;2022-11-20T14:17:21;18.63;;;6.40;;
26989;SDS011;14537;47.788;11.858;2022-11-20T14:19:50;35.70;;;8.55;;
26989;SDS011;14537;47.788;11.858;2022-11-20T14:27:37;51.55;;;13.32;;
26989;SDS011;14537;47.788;11.858;2022-11-20T14:30:04;4.90;;;1.67;;
26989;SDS011;14537;47.788;11.858;2022-11-20T14:32:31;18.95;;;6.53;;
26989;SDS011;14537;47.788;11.858;2022-11-20T14:35:02;2.25;;;1.30;;
26989;SDS011;14537;47.788;11.858;2022-11-20T14:37:33;1.73;;;1.27;;
26989;SDS011;14537;47.788;11.858;2022-11-20T14:40:05;2.25;;;1.17;;
26989;SDS011;14537;47.788;11.858;2022-11-20T14:42:51;1.27;;;0.77;;
26989;SDS011;14537;47.788;11.858;2022-11-20T14:45:17;3.55;;;1.30;;
26989;SDS011;14537;47.788;11.858;2022-11-20T14:47:44;2.20;;;1.00;;
26989;SDS011;14537;47.788;11.858;2022-11-20T14:50:16;4.80;;;1.02;;
26989;SDS011;14537;47.788;11.858;2022-11-20T14:53:21;2.13;;;0.98;;
26989;SDS011;14537;47.788;11.858;2022-11-20T14:55:53;4.00;;;0.73;;
26989;SDS011;14537;47.788;11.858;2022-11-20T14:58:21;3.03;;;1.70;;
26989;SDS011;14537;47.788;11.858;2022-11-20T15:00:56;2.60;;;1.40;;
26989;SDS011;14537;47.788;11.858;2022-11-20T15:05:59;6.18;;;1.77;;
26989;SDS011;14537;47.788;11.858;2022-11-20T15:08:25;4.68;;;1.80;;
26989;SDS011;14537;47.788;11.858;2022-11-20T15:10:51;2.80;;;1.50;;
26989;SDS011;14537;47.788;11.858;2022-11-20T15:13:29;2.83;;;1.55;;
26989;SDS011;14537;47.788;11.858;2022-11-20T15:15:55;5.30;;;1.70;;
26989;SDS011;14537;47.788;11.858;2022-11-20T15:18:36;2.17;;;1.10;;
26989;SDS011;14537;47.788;11.858;2022-11-20T15:21:03;1.65;;;1.10;;
26989;SDS011;14537;47.788;11.858;2022-11-20T15:23:35;2.67;;;1.38;;
26989;SDS011;14537;47.788;11.858;2022-11-20T15:26:01;3.38;;;1.08;;
26989;SDS011;14537;47.788;11.858;2022-11-20T15:31:02;1.02;;;0.90;;
26989;SDS011;14537;47.788;11.858;2022-11-20T15:33:29;0.73;;;0.60;;
26989;SDS011;14537;47.788;11.858;2022-11-20T15:35:55;1.42;;;1.23;;
26989;SDS011;14537;47.788;11.858;2022-11-20T15:38:21;4.38;;;1.48;;
26989;SDS011;14537;47.788;11.858;2022-11-20T15:40:47;5.22;;;1.60;;
26989;SDS011;14537;47.788;11.858;2022-11-20T15:43:12;3.35;;;1.63;;
26989;SDS011;14537;47.788;11.858;2022-11-20T15:45:39;2.55;;;1.30;;
26989;SDS011;14537;47.788;11.858;2022-11-20T15:48:08;1.42;;;1.00;;
26989;SDS011;14537;47.788;11.858;2022-11-20T15:50:46;3.58;;;1.33;;
26989;SDS011;14537;47.788;11.858;2022-11-20T15:53:33;3.08;;;1.80;;
26989;SDS011;14537;47.788;11.858;2022-11-20T15:55:59;4.13;;;1.48;;
26989;SDS011;14537;47.788;11.858;2022-11-20T15:58:24;2.45;;;1.23;;
26989;SDS011;14537;47.788;11.858;2022-11-20T16:00:51;2.90;;;1.25;;
26989;SDS011;14537;47.788;11.858;2022-11-20T16:03:17;2.20;;;0.95;;
26989;SDS011;14537;47.788;11.858;2022-11-20T16:05:43;2.00;;;1.00;;
26989;SDS011;14537;47.788;11.858;2022-11-20T16:08:09;1.23;;;0.95;;
26989;SDS011;14537;47.788;11.858;2022-11-20T16:10:35;2.28;;;1.10;;
26989;SDS011;14537;47.788;11.858;2022-11-20T16:13:02;1.75;;;0.88;;
26989;SDS011;14537;47.788;11.858;2022-11-20T16:15:51;3.92;;;1.40;;
26989;SDS011;14537;47.788;11.858;2022-11-20T16:18:20;2.63;;;1.13;;
26989;SDS011;14537;47.788;11.858;2022-11-20T16:20:47;1.52;;;0.93;;
26989;SDS011;14537;47.788;11.858;2022-11-20T16:23:15;4.82;;;1.83;;
26989;SDS011;14537;47.788;11.858;2022-11-20T16:25:42;1.25;;;1.10;;
26989;SDS011;14537;47.788;11.858;2022-11-20T16:28:08;2.17;;;0.82;;
26989;SDS011;14537;47.788;11.858;2022-11-20T16:30:34;3.08;;;1.08;;
26989;SDS011;14537;47.788;11.858;2022-11-20T16:33:01;1.48;;;1.05;;
26989;SDS011;14537;47.788;11.858;2022-11-20T16:35:27;2.40;;;1.55;;
26989;SDS011;14537;47.788;11.858;2022-11-20T16:37:54;3.58;;;1.00;;
26989;SDS011;14537;47.788;11.858;2022-11-20T16:40:21;2.95;;;0.75;;
26989;SDS011;14537;47.788;11.858;2022-11-20T16:42:47;1.75;;;0.95;;